sensor_id;sensor_type;location;lat;lon;timestamp;P1;durP1;ratioP1;P2;durP2;ratioP2
68449;SDS011;67758;39.572;2.652;2023-11-19T00:00:15;14.88;;;3.70;;
68449;SDS011;67758;39.572;2.652;2023-11-19T00:02:41;19.73;;;4.03;;
68449;SDS011;67758;39.572;2.652;2023-11-19T00:05:07;14.07;;;3.25;;
68449;SDS011;67758;39.572;2.652;2023-11-19T00:07:39;10.55;;;3.40;;
68449;SDS011;67758;39.572;2.652;2023-11-19T00:10:12;18.83;;;4.70;;
68449;SDS011;67758;39.572;2.652;2023-11-19T00:12:43;11.63;;;3.35;;
68449;SDS011;67758;39.572;2.652;2023-11-19T00:15:10;13.40;;;3.42;;
68449;SDS011;67758;39.572;2.652;2023-11-19T00:17:42;13.80;;;3.15;;
68449;SDS011;67758;39.572;2.652;2023-11-19T00:20:16;12.43;;;3.53;;
68449;SDS011;67758;39.572;2.652;2023-11-19T00:22:44;11.75;;;3.03;;
68449;SDS011;67758;39.572;2.652;2023-11-19T00:25:11;10.38;;;2.85;;
68449;SDS011;67758;39.572;2.652;2023-11-19T00:27:37;16.77;;;3.57;;
68449;SDS011;67758;39.572;2.652;2023-11-19T00:30:03;14.55;;;3.25;;
68449;SDS011;67758;39.572;2.652;2023-11-19T00:32:31;11.25;;;3.20;;
68449;SDS011;67758;39.572;2.652;2023-11-19T00:35:05;9.85;;;2.83;;
68449;SDS011;67758;39.572;2.652;2023-11-19T00:37:31;9.73;;;3.17;;
68449;SDS011;67758;39.572;2.652;2023-11-19T00:39:56;10.88;;;3.05;;
68449;SDS011;67758;39.572;2.652;2023-11-19T00:42:23;13.75;;;3.10;;
68449;SDS011;67758;39.572;2.652;2023-11-19T00:44:49;11.32;;;2.97;;
68449;SDS011;67758;39.572;2.652;2023-11-19T00:47:15;12.32;;;2.67;;
68449;SDS011;67758;39.572;2.652;2023-11-19T00:49:41;13.00;;;2.73;;
68449;SDS011;67758;39.572;2.652;2023-11-19T00:52:08;14.70;;;3.10;;
68449;SDS011;67758;39.572;2.652;2023-11-19T00:54:33;10.65;;;2.60;;
68449;SDS011;67758;39.572;2.652;2023-11-19T00:56:59;11.07;;;2.40;;
68449;SDS011;67758;39.572;2.652;2023-11-19T00:59:26;11.73;;;2.58;;
68449;SDS011;67758;39.572;2.652;2023-11-19T01:01:53;11.55;;;2.40;;
68449;SDS011;67758;39.572;2.652;2023-11-19T01:04:19;13.07;;;2.73;;
68449;SDS011;67758;39.572;2.652;2023-11-19T01:06:45;11.55;;;2.63;;
68449;SDS011;67758;39.572;2.652;2023-11-19T01:09:10;17.80;;;2.27;;
68449;SDS011;67758;39.572;2.652;2023-11-19T01:11:36;10.85;;;2.83;;
68449;SDS011;67758;39.572;2.652;2023-11-19T01:14:02;12.03;;;2.53;;
68449;SDS011;67758;39.572;2.652;2023-11-19T01:16:27;10.82;;;2.50;;
68449;SDS011;67758;39.572;2.652;2023-11-19T01:18:53;12.13;;;3.10;;
68449;SDS011;67758;39.572;2.652;2023-11-19T01:21:19;11.57;;;3.30;;
68449;SDS011;67758;39.572;2.652;2023-11-19T01:23:45;16.35;;;3.60;;
68449;SDS011;67758;39.572;2.652;2023-11-19T01:26:11;10.40;;;3.72;;
68449;SDS011;67758;39.572;2.652;2023-11-19T01:28:39;14.95;;;3.85;;
68449;SDS011;67758;39.572;2.652;2023-11-19T01:31:14;13.43;;;3.20;;
68449;SDS011;67758;39.572;2.652;2023-11-19T01:33:40;10.70;;;3.33;;
68449;SDS011;67758;39.572;2.652;2023-11-19T01:36:07;11.35;;;2.85;;
68449;SDS011;67758;39.572;2.652;2023-11-19T01:38:33;16.40;;;3.25;;
68449;SDS011;67758;39.572;2.652;2023-11-19T01:41:00;10.30;;;2.80;;
68449;SDS011;67758;39.572;2.652;2023-11-19T01:43:37;12.07;;;2.72;;
68449;SDS011;67758;39.572;2.652;2023-11-19T01:46:07;11.77;;;2.78;;
68449;SDS011;67758;39.572;2.652;2023-11-19T01:48:37;14.10;;;2.50;;
68449;SDS011;67758;39.572;2.652;2023-11-19T01:51:09;9.00;;;2.63;;
68449;SDS011;67758;39.572;2.652;2023-11-19T01:53:36;11.00;;;2.60;;
68449;SDS011;67758;39.572;2.652;2023-11-19T01:56:04;15.93;;;3.47;;
68449;SDS011;67758;39.572;2.652;2023-11-19T01:58:35;11.18;;;2.95;;
68449;SDS011;67758;39.572;2.652;2023-11-19T02:01:01;9.07;;;2.17;;
68449;SDS011;67758;39.572;2.652;2023-11-19T02:03:30;14.27;;;2.90;;
68449;SDS011;67758;39.572;2.652;2023-11-19T02:05:58;9.90;;;2.53;;
68449;SDS011;67758;39.572;2.652;2023-11-19T02:08:24;9.68;;;2.78;;
68449;SDS011;67758;39.572;2.652;2023-11-19T02:10:51;12.35;;;2.75;;
68449;SDS011;67758;39.572;2.652;2023-11-19T02:13:17;10.40;;;2.40;;
68449;SDS011;67758;39.572;2.652;2023-11-19T02:15:44;14.63;;;2.88;;
68449;SDS011;67758;39.572;2.652;2023-11-19T02:18:19;10.27;;;2.47;;
68449;SDS011;67758;39.572;2.652;2023-11-19T02:20:45;10.25;;;2.40;;
68449;SDS011;67758;39.572;2.652;2023-11-19T02:23:13;10.05;;;2.30;;
68449;SDS011;67758;39.572;2.652;2023-11-19T02:25:38;10.60;;;2.00;;
68449;SDS011;67758;39.572;2.652;2023-11-19T02:28:05;12.80;;;2.63;;
68449;SDS011;67758;39.572;2.652;2023-11-19T02:30:31;10.43;;;2.13;;
68449;SDS011;67758;39.572;2.652;2023-11-19T02:32:57;10.23;;;2.35;;
68449;SDS011;67758;39.572;2.652;2023-11-19T02:35:25;9.85;;;1.75;;
68449;SDS011;67758;39.572;2.652;2023-11-19T02:37:51;7.75;;;2.13;;
68449;SDS011;67758;39.572;2.652;2023-11-19T02:40:17;10.65;;;2.03;;
68449;SDS011;67758;39.572;2.652;2023-11-19T02:42:43;9.10;;;2.00;;
68449;SDS011;67758;39.572;2.652;2023-11-19T02:45:09;10.43;;;2.50;;
68449;SDS011;67758;39.572;2.652;2023-11-19T02:47:42;10.68;;;2.33;;
68449;SDS011;67758;39.572;2.652;2023-11-19T02:50:12;11.07;;;2.15;;
68449;SDS011;67758;39.572;2.652;2023-11-19T02:52:41;8.43;;;2.00;;
68449;SDS011;67758;39.572;2.652;2023-11-19T02:55:07;8.38;;;1.95;;
68449;SDS011;67758;39.572;2.652;2023-11-19T02:57:37;9.02;;;2.10;;
68449;SDS011;67758;39.572;2.652;2023-11-19T03:00:06;9.43;;;2.20;;
68449;SDS011;67758;39.572;2.652;2023-11-19T03:02:40;11.27;;;1.83;;
68449;SDS011;67758;39.572;2.652;2023-11-19T03:05:14;9.68;;;1.98;;
68449;SDS011;67758;39.572;2.652;2023-11-19T03:07:42;12.18;;;2.08;;
68449;SDS011;67758;39.572;2.652;2023-11-19T03:10:09;9.23;;;2.33;;
68449;SDS011;67758;39.572;2.652;2023-11-19T03:12:38;10.02;;;2.15;;
68449;SDS011;67758;39.572;2.652;2023-11-19T03:15:08;11.02;;;2.38;;
68449;SDS011;67758;39.572;2.652;2023-11-19T03:17:40;8.75;;;2.10;;
68449;SDS011;67758;39.572;2.652;2023-11-19T03:20:07;11.18;;;2.03;;
68449;SDS011;67758;39.572;2.652;2023-11-19T03:22:40;10.30;;;2.00;;
68449;SDS011;67758;39.572;2.652;2023-11-19T03:25:09;10.32;;;2.30;;
68449;SDS011;67758;39.572;2.652;2023-11-19T03:27:36;12.07;;;2.10;;
68449;SDS011;67758;39.572;2.652;2023-11-19T03:30:07;10.40;;;1.80;;
68449;SDS011;67758;39.572;2.652;2023-11-19T03:32:36;8.05;;;1.77;;
68449;SDS011;67758;39.572;2.652;2023-11-19T03:35:02;9.60;;;1.90;;
68449;SDS011;67758;39.572;2.652;2023-11-19T03:37:29;9.70;;;1.80;;
68449;SDS011;67758;39.572;2.652;2023-11-19T03:39:56;9.90;;;2.23;;
68449;SDS011;67758;39.572;2.652;2023-11-19T03:42:27;11.82;;;1.95;;
68449;SDS011;67758;39.572;2.652;2023-11-19T03:44:55;8.07;;;1.75;;
68449;SDS011;67758;39.572;2.652;2023-11-19T03:47:21;8.82;;;1.50;;
68449;SDS011;67758;39.572;2.652;2023-11-19T03:49:50;8.87;;;1.57;;
68449;SDS011;67758;39.572;2.652;2023-11-19T03:52:16;5.57;;;1.20;;
68449;SDS011;67758;39.572;2.652;2023-11-19T03:54:42;9.00;;;1.50;;
68449;SDS011;67758;39.572;2.652;2023-11-19T03:57:09;6.13;;;1.65;;
68449;SDS011;67758;39.572;2.652;2023-11-19T03:59:37;7.40;;;1.63;;
68449;SDS011;67758;39.572;2.652;2023-11-19T04:02:03;10.45;;;2.15;;
68449;SDS011;67758;39.572;2.652;2023-11-19T04:04:29;10.63;;;1.83;;
68449;SDS011;67758;39.572;2.652;2023-11-19T04:06:55;8.37;;;1.50;;
68449;SDS011;67758;39.572;2.652;2023-11-19T04:09:20;9.30;;;1.65;;
68449;SDS011;67758;39.572;2.652;2023-11-19T04:11:46;9.63;;;2.30;;
68449;SDS011;67758;39.572;2.652;2023-11-19T04:14:12;13.40;;;1.90;;
68449;SDS011;67758;39.572;2.652;2023-11-19T04:16:38;11.25;;;3.17;;
68449;SDS011;67758;39.572;2.652;2023-11-19T04:19:04;8.73;;;1.37;;
68449;SDS011;67758;39.572;2.652;2023-11-19T04:21:30;9.88;;;1.10;;
68449;SDS011;67758;39.572;2.652;2023-11-19T04:23:56;9.37;;;1.40;;
68449;SDS011;67758;39.572;2.652;2023-11-19T04:26:21;9.40;;;1.38;;
68449;SDS011;67758;39.572;2.652;2023-11-19T04:28:47;7.87;;;1.30;;
68449;SDS011;67758;39.572;2.652;2023-11-19T04:31:14;8.85;;;1.35;;
68449;SDS011;67758;39.572;2.652;2023-11-19T04:33:41;8.02;;;1.20;;
68449;SDS011;67758;39.572;2.652;2023-11-19T04:36:10;6.13;;;0.93;;
68449;SDS011;67758;39.572;2.652;2023-11-19T04:38:36;9.77;;;1.23;;
68449;SDS011;67758;39.572;2.652;2023-11-19T04:41:04;6.73;;;1.30;;
68449;SDS011;67758;39.572;2.652;2023-11-19T04:43:31;9.15;;;1.10;;
68449;SDS011;67758;39.572;2.652;2023-11-19T04:45:57;8.32;;;1.45;;
68449;SDS011;67758;39.572;2.652;2023-11-19T04:48:23;10.80;;;1.40;;
68449;SDS011;67758;39.572;2.652;2023-11-19T04:50:49;6.72;;;1.42;;
68449;SDS011;67758;39.572;2.652;2023-11-19T04:53:16;7.28;;;1.10;;
68449;SDS011;67758;39.572;2.652;2023-11-19T04:55:42;8.93;;;1.40;;
68449;SDS011;67758;39.572;2.652;2023-11-19T04:58:08;7.13;;;1.38;;
68449;SDS011;67758;39.572;2.652;2023-11-19T05:00:34;9.23;;;1.67;;
68449;SDS011;67758;39.572;2.652;2023-11-19T05:02:59;8.52;;;1.40;;
68449;SDS011;67758;39.572;2.652;2023-11-19T05:05:25;10.90;;;1.40;;
68449;SDS011;67758;39.572;2.652;2023-11-19T05:07:51;8.80;;;1.45;;
68449;SDS011;67758;39.572;2.652;2023-11-19T05:10:16;7.33;;;1.40;;
68449;SDS011;67758;39.572;2.652;2023-11-19T05:12:42;7.10;;;1.10;;
68449;SDS011;67758;39.572;2.652;2023-11-19T05:15:07;8.65;;;1.60;;
68449;SDS011;67758;39.572;2.652;2023-11-19T05:17:33;7.97;;;1.90;;
68449;SDS011;67758;39.572;2.652;2023-11-19T05:19:59;7.32;;;1.40;;
68449;SDS011;67758;39.572;2.652;2023-11-19T05:22:25;7.70;;;1.40;;
68449;SDS011;67758;39.572;2.652;2023-11-19T05:24:51;8.68;;;1.50;;
68449;SDS011;67758;39.572;2.652;2023-11-19T05:27:17;8.07;;;1.30;;
68449;SDS011;67758;39.572;2.652;2023-11-19T05:29:42;8.63;;;1.73;;
68449;SDS011;67758;39.572;2.652;2023-11-19T05:32:09;8.48;;;1.38;;
68449;SDS011;67758;39.572;2.652;2023-11-19T05:34:35;8.52;;;1.38;;
68449;SDS011;67758;39.572;2.652;2023-11-19T05:37:00;8.48;;;1.27;;
68449;SDS011;67758;39.572;2.652;2023-11-19T05:39:27;10.07;;;1.50;;
68449;SDS011;67758;39.572;2.652;2023-11-19T05:41:53;8.32;;;1.45;;
68449;SDS011;67758;39.572;2.652;2023-11-19T05:44:19;10.70;;;1.30;;
68449;SDS011;67758;39.572;2.652;2023-11-19T05:46:44;11.68;;;1.60;;
68449;SDS011;67758;39.572;2.652;2023-11-19T05:49:11;7.80;;;1.03;;
68449;SDS011;67758;39.572;2.652;2023-11-19T05:51:38;7.22;;;1.30;;
68449;SDS011;67758;39.572;2.652;2023-11-19T05:54:06;7.40;;;1.10;;
68449;SDS011;67758;39.572;2.652;2023-11-19T05:56:33;8.00;;;1.08;;
68449;SDS011;67758;39.572;2.652;2023-11-19T05:58:59;9.07;;;1.15;;
68449;SDS011;67758;39.572;2.652;2023-11-19T06:01:39;5.77;;;1.07;;
68449;SDS011;67758;39.572;2.652;2023-11-19T06:04:10;9.50;;;1.63;;
68449;SDS011;67758;39.572;2.652;2023-11-19T06:06:35;5.68;;;1.30;;
68449;SDS011;67758;39.572;2.652;2023-11-19T06:09:01;7.20;;;1.20;;
68449;SDS011;67758;39.572;2.652;2023-11-19T06:11:28;6.05;;;1.30;;
68449;SDS011;67758;39.572;2.652;2023-11-19T06:13:53;8.73;;;1.13;;
68449;SDS011;67758;39.572;2.652;2023-11-19T06:16:20;9.27;;;1.20;;
68449;SDS011;67758;39.572;2.652;2023-11-19T06:18:46;8.00;;;1.00;;
68449;SDS011;67758;39.572;2.652;2023-11-19T06:21:12;6.60;;;1.10;;
68449;SDS011;67758;39.572;2.652;2023-11-19T06:23:38;6.70;;;1.10;;
68449;SDS011;67758;39.572;2.652;2023-11-19T06:26:03;10.82;;;1.20;;
68449;SDS011;67758;39.572;2.652;2023-11-19T06:28:30;8.88;;;1.40;;
68449;SDS011;67758;39.572;2.652;2023-11-19T06:30:56;7.47;;;0.90;;
68449;SDS011;67758;39.572;2.652;2023-11-19T06:33:23;6.45;;;1.27;;
68449;SDS011;67758;39.572;2.652;2023-11-19T06:35:49;5.25;;;1.10;;
68449;SDS011;67758;39.572;2.652;2023-11-19T06:38:15;8.13;;;1.40;;
68449;SDS011;67758;39.572;2.652;2023-11-19T06:40:41;8.63;;;1.47;;
68449;SDS011;67758;39.572;2.652;2023-11-19T06:43:06;10.03;;;1.57;;
68449;SDS011;67758;39.572;2.652;2023-11-19T06:45:34;7.35;;;1.20;;
68449;SDS011;67758;39.572;2.652;2023-11-19T06:48:02;7.22;;;1.30;;
68449;SDS011;67758;39.572;2.652;2023-11-19T06:50:31;7.97;;;1.42;;
68449;SDS011;67758;39.572;2.652;2023-11-19T06:52:57;8.43;;;1.20;;
68449;SDS011;67758;39.572;2.652;2023-11-19T06:55:22;6.60;;;1.17;;
68449;SDS011;67758;39.572;2.652;2023-11-19T06:57:48;6.43;;;1.10;;
68449;SDS011;67758;39.572;2.652;2023-11-19T07:00:14;8.00;;;1.25;;
68449;SDS011;67758;39.572;2.652;2023-11-19T07:02:39;7.97;;;1.60;;
68449;SDS011;67758;39.572;2.652;2023-11-19T07:05:05;10.00;;;1.58;;
68449;SDS011;67758;39.572;2.652;2023-11-19T07:07:32;8.63;;;1.52;;
68449;SDS011;67758;39.572;2.652;2023-11-19T07:10:00;9.57;;;1.50;;
68449;SDS011;67758;39.572;2.652;2023-11-19T07:12:27;7.70;;;1.40;;
68449;SDS011;67758;39.572;2.652;2023-11-19T07:14:53;6.90;;;1.85;;
68449;SDS011;67758;39.572;2.652;2023-11-19T07:17:20;11.68;;;1.67;;
68449;SDS011;67758;39.572;2.652;2023-11-19T07:19:49;6.77;;;1.53;;
68449;SDS011;67758;39.572;2.652;2023-11-19T07:22:15;6.55;;;1.50;;
68449;SDS011;67758;39.572;2.652;2023-11-19T07:24:41;9.73;;;1.58;;
68449;SDS011;67758;39.572;2.652;2023-11-19T07:27:07;8.30;;;1.60;;
68449;SDS011;67758;39.572;2.652;2023-11-19T07:29:34;10.07;;;1.92;;
68449;SDS011;67758;39.572;2.652;2023-11-19T07:32:03;9.00;;;1.42;;
68449;SDS011;67758;39.572;2.652;2023-11-19T07:34:30;7.05;;;1.88;;
68449;SDS011;67758;39.572;2.652;2023-11-19T07:36:56;8.73;;;1.83;;
68449;SDS011;67758;39.572;2.652;2023-11-19T07:39:27;7.47;;;1.73;;
68449;SDS011;67758;39.572;2.652;2023-11-19T07:41:53;7.60;;;2.00;;
68449;SDS011;67758;39.572;2.652;2023-11-19T07:44:19;8.00;;;2.00;;
68449;SDS011;67758;39.572;2.652;2023-11-19T07:46:46;6.93;;;2.25;;
68449;SDS011;67758;39.572;2.652;2023-11-19T07:49:13;6.85;;;2.05;;
68449;SDS011;67758;39.572;2.652;2023-11-19T07:51:39;9.93;;;2.75;;
68449;SDS011;67758;39.572;2.652;2023-11-19T07:54:05;11.10;;;2.10;;
68449;SDS011;67758;39.572;2.652;2023-11-19T07:56:31;9.90;;;2.42;;
68449;SDS011;67758;39.572;2.652;2023-11-19T07:58:59;8.70;;;2.25;;
68449;SDS011;67758;39.572;2.652;2023-11-19T08:01:25;8.20;;;1.80;;
68449;SDS011;67758;39.572;2.652;2023-11-19T08:03:50;8.23;;;2.30;;
68449;SDS011;67758;39.572;2.652;2023-11-19T08:06:16;7.90;;;2.22;;
68449;SDS011;67758;39.572;2.652;2023-11-19T08:08:41;8.77;;;2.37;;
68449;SDS011;67758;39.572;2.652;2023-11-19T08:11:08;8.25;;;2.50;;
68449;SDS011;67758;39.572;2.652;2023-11-19T08:13:33;7.60;;;2.20;;
68449;SDS011;67758;39.572;2.652;2023-11-19T08:15:59;7.68;;;2.22;;
68449;SDS011;67758;39.572;2.652;2023-11-19T08:18:24;9.20;;;2.47;;
68449;SDS011;67758;39.572;2.652;2023-11-19T08:20:50;7.40;;;2.22;;
68449;SDS011;67758;39.572;2.652;2023-11-19T08:23:18;8.63;;;2.40;;
68449;SDS011;67758;39.572;2.652;2023-11-19T08:25:44;7.63;;;2.50;;
68449;SDS011;67758;39.572;2.652;2023-11-19T08:28:10;10.70;;;3.03;;
68449;SDS011;67758;39.572;2.652;2023-11-19T08:30:36;11.20;;;2.60;;
68449;SDS011;67758;39.572;2.652;2023-11-19T08:33:01;9.10;;;3.20;;
68449;SDS011;67758;39.572;2.652;2023-11-19T08:35:31;9.48;;;2.50;;
68449;SDS011;67758;39.572;2.652;2023-11-19T08:37:57;9.57;;;2.72;;
68449;SDS011;67758;39.572;2.652;2023-11-19T08:40:24;8.27;;;2.70;;
68449;SDS011;67758;39.572;2.652;2023-11-19T08:42:51;8.02;;;2.63;;
68449;SDS011;67758;39.572;2.652;2023-11-19T08:45:17;9.82;;;2.65;;
68449;SDS011;67758;39.572;2.652;2023-11-19T08:47:42;9.57;;;2.60;;
68449;SDS011;67758;39.572;2.652;2023-11-19T08:50:10;10.45;;;2.53;;
68449;SDS011;67758;39.572;2.652;2023-11-19T08:52:36;10.73;;;2.80;;
68449;SDS011;67758;39.572;2.652;2023-11-19T08:55:02;13.25;;;3.08;;
68449;SDS011;67758;39.572;2.652;2023-11-19T08:57:30;9.13;;;3.20;;
68449;SDS011;67758;39.572;2.652;2023-11-19T08:59:56;9.70;;;3.10;;
68449;SDS011;67758;39.572;2.652;2023-11-19T09:02:22;10.37;;;3.53;;
68449;SDS011;67758;39.572;2.652;2023-11-19T09:04:48;13.70;;;4.00;;
68449;SDS011;67758;39.572;2.652;2023-11-19T09:07:13;10.80;;;3.33;;
68449;SDS011;67758;39.572;2.652;2023-11-19T09:09:39;11.73;;;3.63;;
68449;SDS011;67758;39.572;2.652;2023-11-19T09:12:05;11.10;;;4.15;;
68449;SDS011;67758;39.572;2.652;2023-11-19T09:14:31;11.82;;;4.63;;
68449;SDS011;67758;39.572;2.652;2023-11-19T09:16:57;11.63;;;3.30;;
68449;SDS011;67758;39.572;2.652;2023-11-19T09:19:23;16.65;;;4.40;;
68449;SDS011;67758;39.572;2.652;2023-11-19T09:21:49;14.93;;;4.00;;
68449;SDS011;67758;39.572;2.652;2023-11-19T09:24:15;11.53;;;3.33;;
68449;SDS011;67758;39.572;2.652;2023-11-19T09:26:41;13.35;;;3.83;;
68449;SDS011;67758;39.572;2.652;2023-11-19T09:29:07;11.77;;;3.97;;
68449;SDS011;67758;39.572;2.652;2023-11-19T09:31:37;12.00;;;4.03;;
68449;SDS011;67758;39.572;2.652;2023-11-19T09:34:04;16.60;;;3.73;;
68449;SDS011;67758;39.572;2.652;2023-11-19T09:36:29;12.73;;;3.53;;
68449;SDS011;67758;39.572;2.652;2023-11-19T09:38:55;13.13;;;3.63;;
68449;SDS011;67758;39.572;2.652;2023-11-19T09:41:20;14.00;;;3.95;;
68449;SDS011;67758;39.572;2.652;2023-11-19T09:43:46;15.23;;;2.58;;
68449;SDS011;67758;39.572;2.652;2023-11-19T09:46:15;13.48;;;2.20;;
68449;SDS011;67758;39.572;2.652;2023-11-19T09:48:42;9.88;;;2.05;;
68449;SDS011;67758;39.572;2.652;2023-11-19T09:51:11;8.85;;;1.55;;
68449;SDS011;67758;39.572;2.652;2023-11-19T09:53:37;12.32;;;1.80;;
68449;SDS011;67758;39.572;2.652;2023-11-19T09:56:06;12.40;;;1.70;;
68449;SDS011;67758;39.572;2.652;2023-11-19T09:58:35;9.55;;;2.20;;
68449;SDS011;67758;39.572;2.652;2023-11-19T10:01:01;11.95;;;1.52;;
68449;SDS011;67758;39.572;2.652;2023-11-19T10:03:36;12.68;;;1.92;;
68449;SDS011;67758;39.572;2.652;2023-11-19T10:06:08;10.48;;;1.60;;
68449;SDS011;67758;39.572;2.652;2023-11-19T10:08:38;11.10;;;1.53;;
68449;SDS011;67758;39.572;2.652;2023-11-19T10:11:07;7.10;;;1.50;;
68449;SDS011;67758;39.572;2.652;2023-11-19T10:13:36;9.45;;;1.50;;
68449;SDS011;67758;39.572;2.652;2023-11-19T10:16:14;11.98;;;1.90;;
68449;SDS011;67758;39.572;2.652;2023-11-19T10:18:46;9.98;;;1.60;;
68449;SDS011;67758;39.572;2.652;2023-11-19T10:21:13;9.03;;;1.80;;
68449;SDS011;67758;39.572;2.652;2023-11-19T10:26:15;10.07;;;1.52;;
68449;SDS011;67758;39.572;2.652;2023-11-19T10:28:41;10.40;;;1.75;;
68449;SDS011;67758;39.572;2.652;2023-11-19T10:31:14;8.33;;;2.50;;
68449;SDS011;67758;39.572;2.652;2023-11-19T10:33:40;10.35;;;2.20;;
68449;SDS011;67758;39.572;2.652;2023-11-19T10:36:06;9.40;;;2.13;;
68449;SDS011;67758;39.572;2.652;2023-11-19T10:38:32;10.93;;;2.30;;
68449;SDS011;67758;39.572;2.652;2023-11-19T10:40:58;11.07;;;1.67;;
68449;SDS011;67758;39.572;2.652;2023-11-19T10:43:24;10.10;;;2.13;;
68449;SDS011;67758;39.572;2.652;2023-11-19T10:45:50;11.10;;;2.67;;
68449;SDS011;67758;39.572;2.652;2023-11-19T10:48:17;10.93;;;2.45;;
68449;SDS011;67758;39.572;2.652;2023-11-19T10:50:44;10.52;;;2.30;;
68449;SDS011;67758;39.572;2.652;2023-11-19T10:53:11;12.00;;;2.08;;
68449;SDS011;67758;39.572;2.652;2023-11-19T10:55:41;9.18;;;2.20;;
68449;SDS011;67758;39.572;2.652;2023-11-19T10:58:08;12.52;;;2.50;;
68449;SDS011;67758;39.572;2.652;2023-11-19T11:03:18;8.43;;;2.03;;
68449;SDS011;67758;39.572;2.652;2023-11-19T11:05:48;10.15;;;2.90;;
68449;SDS011;67758;39.572;2.652;2023-11-19T11:08:15;7.22;;;2.35;;
68449;SDS011;67758;39.572;2.652;2023-11-19T11:10:44;8.63;;;2.17;;
68449;SDS011;67758;39.572;2.652;2023-11-19T11:13:20;8.98;;;2.03;;
68449;SDS011;67758;39.572;2.652;2023-11-19T11:15:55;10.40;;;1.88;;
68449;SDS011;67758;39.572;2.652;2023-11-19T11:18:23;8.68;;;2.05;;
68449;SDS011;67758;39.572;2.652;2023-11-19T11:20:59;8.20;;;1.83;;
68449;SDS011;67758;39.572;2.652;2023-11-19T11:26:30;10.07;;;2.22;;
68449;SDS011;67758;39.572;2.652;2023-11-19T11:32:00;8.30;;;1.80;;
68449;SDS011;67758;39.572;2.652;2023-11-19T11:37:32;9.50;;;2.35;;
68449;SDS011;67758;39.572;2.652;2023-11-19T11:39:58;8.30;;;1.90;;
68449;SDS011;67758;39.572;2.652;2023-11-19T11:44:58;9.50;;;1.98;;
68449;SDS011;67758;39.572;2.652;2023-11-19T11:50:17;8.38;;;2.15;;
68449;SDS011;67758;39.572;2.652;2023-11-19T11:55:26;6.93;;;1.70;;
68449;SDS011;67758;39.572;2.652;2023-11-19T11:58:08;8.20;;;2.50;;
68449;SDS011;67758;39.572;2.652;2023-11-19T12:00:37;11.87;;;2.30;;
68449;SDS011;67758;39.572;2.652;2023-11-19T12:03:05;7.88;;;1.70;;
68449;SDS011;67758;39.572;2.652;2023-11-19T12:05:41;8.55;;;2.30;;
68449;SDS011;67758;39.572;2.652;2023-11-19T12:08:09;9.30;;;2.00;;
68449;SDS011;67758;39.572;2.652;2023-11-19T12:13:10;9.67;;;2.20;;
68449;SDS011;67758;39.572;2.652;2023-11-19T12:18:23;6.97;;;2.28;;
68449;SDS011;67758;39.572;2.652;2023-11-19T12:20:53;6.55;;;1.77;;
68449;SDS011;67758;39.572;2.652;2023-11-19T12:23:22;8.43;;;1.63;;
68449;SDS011;67758;39.572;2.652;2023-11-19T12:25:49;8.10;;;1.67;;
68449;SDS011;67758;39.572;2.652;2023-11-19T12:28:15;7.30;;;1.67;;
68449;SDS011;67758;39.572;2.652;2023-11-19T12:30:44;8.95;;;1.90;;
68449;SDS011;67758;39.572;2.652;2023-11-19T12:33:11;7.23;;;1.67;;
68449;SDS011;67758;39.572;2.652;2023-11-19T12:35:44;8.77;;;1.70;;
68449;SDS011;67758;39.572;2.652;2023-11-19T12:38:25;9.35;;;2.10;;
68449;SDS011;67758;39.572;2.652;2023-11-19T12:43:29;7.53;;;1.60;;
68449;SDS011;67758;39.572;2.652;2023-11-19T12:45:55;7.67;;;1.57;;
68449;SDS011;67758;39.572;2.652;2023-11-19T12:48:21;8.52;;;2.03;;
68449;SDS011;67758;39.572;2.652;2023-11-19T12:50:53;9.73;;;1.43;;
68449;SDS011;67758;39.572;2.652;2023-11-19T12:53:21;7.00;;;1.20;;
68449;SDS011;67758;39.572;2.652;2023-11-19T12:55:48;11.75;;;1.65;;
68449;SDS011;67758;39.572;2.652;2023-11-19T12:58:33;7.35;;;1.30;;
68449;SDS011;67758;39.572;2.652;2023-11-19T13:01:05;10.23;;;1.83;;
68449;SDS011;67758;39.572;2.652;2023-11-19T13:03:35;8.20;;;1.42;;
68449;SDS011;67758;39.572;2.652;2023-11-19T13:06:02;7.32;;;1.52;;
68449;SDS011;67758;39.572;2.652;2023-11-19T13:08:49;10.15;;;2.08;;
68449;SDS011;67758;39.572;2.652;2023-11-19T13:11:33;9.80;;;1.63;;
68449;SDS011;67758;39.572;2.652;2023-11-19T13:14:02;8.00;;;1.65;;
68449;SDS011;67758;39.572;2.652;2023-11-19T13:16:37;9.70;;;1.27;;
68449;SDS011;67758;39.572;2.652;2023-11-19T13:19:03;8.88;;;1.40;;
68449;SDS011;67758;39.572;2.652;2023-11-19T13:21:30;11.55;;;2.17;;
68449;SDS011;67758;39.572;2.652;2023-11-19T13:23:55;8.80;;;1.83;;
68449;SDS011;67758;39.572;2.652;2023-11-19T13:26:21;8.18;;;2.00;;
68449;SDS011;67758;39.572;2.652;2023-11-19T13:28:47;9.27;;;2.30;;
68449;SDS011;67758;39.572;2.652;2023-11-19T13:31:13;9.17;;;1.80;;
68449;SDS011;67758;39.572;2.652;2023-11-19T13:33:39;10.73;;;1.73;;
68449;SDS011;67758;39.572;2.652;2023-11-19T13:36:05;12.82;;;3.53;;
68449;SDS011;67758;39.572;2.652;2023-11-19T13:38:33;12.83;;;4.13;;
68449;SDS011;67758;39.572;2.652;2023-11-19T13:40:58;12.23;;;2.85;;
68449;SDS011;67758;39.572;2.652;2023-11-19T13:43:24;8.77;;;1.88;;
68449;SDS011;67758;39.572;2.652;2023-11-19T13:45:50;6.53;;;1.50;;
68449;SDS011;67758;39.572;2.652;2023-11-19T13:48:18;7.38;;;1.88;;
68449;SDS011;67758;39.572;2.652;2023-11-19T13:50:44;6.07;;;1.40;;
68449;SDS011;67758;39.572;2.652;2023-11-19T13:53:10;10.88;;;3.10;;
68449;SDS011;67758;39.572;2.652;2023-11-19T13:55:36;7.70;;;1.80;;
68449;SDS011;67758;39.572;2.652;2023-11-19T13:58:01;12.60;;;3.15;;
68449;SDS011;67758;39.572;2.652;2023-11-19T14:00:27;9.13;;;2.23;;
68449;SDS011;67758;39.572;2.652;2023-11-19T14:02:53;9.77;;;1.88;;
68449;SDS011;67758;39.572;2.652;2023-11-19T14:05:19;8.03;;;1.80;;
68449;SDS011;67758;39.572;2.652;2023-11-19T14:07:44;10.30;;;2.15;;
68449;SDS011;67758;39.572;2.652;2023-11-19T14:10:13;6.72;;;1.75;;
68449;SDS011;67758;39.572;2.652;2023-11-19T14:12:40;7.70;;;1.80;;
68449;SDS011;67758;39.572;2.652;2023-11-19T14:15:06;9.60;;;2.35;;
68449;SDS011;67758;39.572;2.652;2023-11-19T14:17:34;14.68;;;1.90;;
68449;SDS011;67758;39.572;2.652;2023-11-19T14:20:03;9.48;;;2.10;;
68449;SDS011;67758;39.572;2.652;2023-11-19T14:22:38;9.75;;;2.75;;
68449;SDS011;67758;39.572;2.652;2023-11-19T14:25:08;9.30;;;1.83;;
68449;SDS011;67758;39.572;2.652;2023-11-19T14:27:39;8.75;;;1.77;;
68449;SDS011;67758;39.572;2.652;2023-11-19T14:30:10;10.10;;;2.35;;
68449;SDS011;67758;39.572;2.652;2023-11-19T14:32:37;6.90;;;1.80;;
68449;SDS011;67758;39.572;2.652;2023-11-19T14:35:07;8.88;;;2.00;;
68449;SDS011;67758;39.572;2.652;2023-11-19T14:37:33;9.80;;;2.13;;
68449;SDS011;67758;39.572;2.652;2023-11-19T14:39:59;8.40;;;1.63;;
68449;SDS011;67758;39.572;2.652;2023-11-19T14:42:25;7.70;;;1.70;;
68449;SDS011;67758;39.572;2.652;2023-11-19T14:44:54;8.23;;;1.80;;
68449;SDS011;67758;39.572;2.652;2023-11-19T14:47:20;11.85;;;1.80;;
68449;SDS011;67758;39.572;2.652;2023-11-19T14:53:23;9.00;;;2.08;;
68449;SDS011;67758;39.572;2.652;2023-11-19T14:55:49;9.95;;;1.77;;
68449;SDS011;67758;39.572;2.652;2023-11-19T14:58:14;9.67;;;1.97;;
68449;SDS011;67758;39.572;2.652;2023-11-19T15:00:40;13.27;;;3.63;;
68449;SDS011;67758;39.572;2.652;2023-11-19T15:03:06;9.38;;;2.40;;
68449;SDS011;67758;39.572;2.652;2023-11-19T15:05:31;8.95;;;1.77;;
68449;SDS011;67758;39.572;2.652;2023-11-19T15:07:57;8.30;;;2.17;;
68449;SDS011;67758;39.572;2.652;2023-11-19T15:10:22;8.70;;;1.83;;
68449;SDS011;67758;39.572;2.652;2023-11-19T15:12:49;11.43;;;2.30;;
68449;SDS011;67758;39.572;2.652;2023-11-19T15:15:15;8.40;;;1.55;;
68449;SDS011;67758;39.572;2.652;2023-11-19T15:17:41;10.60;;;2.28;;